Buoy 32543

sailwx.info

Track history (hours):
 
Tides and Currents Weather Stations Pressure Air Temp Water Temp Dewpoint Dewpoint Depression Visibility Wind Speed Wind Dir Waves Ship Positions

Zhongguoyuzheng32543

Last reported at 2018-Feb-23 07:00 UTC. Time now 2018-Feb-23 08:38 UTC.
Position N 19°28' E 116°25'.

Length 50 m; draft 3.2 m.

Type: Other ship. MMSI: 412352016.

Water temperature 24.1 ° C

Date/timePositionNaut miles runAvg speedWind from/ knotsBaromVisibWave heightAir tempDewpointWater temp
2018-Feb-23 07:00N 19°28' E 116°25'0 0.0 24.1
2018-Feb-23 06:00N 19°28' E 116°25'10 2.0 24.1
2018-Feb-23 01:00N 19°28' E 116°36'1 0.8 23.9
2018-Feb-23 00:00N 19°27' E 116°37'1 1.3 23.9
2018-Feb-22 23:00N 19°28' E 116°38'1 1.1 23.9
2018-Feb-22 22:00N 19°28' E 116°39'3 3.4 23.9
2018-Feb-22 21:00N 19°28' E 116°43'0 0.0 23.9
2018-Feb-22 20:00N 19°28' E 116°43'0 0.0 23.9
2018-Feb-22 19:00N 19°28' E 116°43'6 1.2 23.9
2018-Feb-22 14:00N 19°31' E 116°49'2 2.3 24.0
2018-Feb-22 13:00N 19°31' E 116°51'1 0.8 23.9
2018-Feb-22 12:00N 19°32' E 116°52'1 0.6 23.9
2018-Feb-22 10:00N 19°32' E 116°53'0 0.0 24.1
2018-Feb-22 09:00N 19°32' E 116°53'1 0.3 24.2
2018-Feb-22 07:00N 19°32' E 116°53'0 0.0 24.1
2018-Feb-22 06:00N 19°32' E 116°53'6 1.6 24.3
2018-Feb-22 02:00N 19°28' E 116°58'0 0.0 24.0
2018-Feb-22 01:00N 19°28' E 116°58'2 2.3 23.9
2018-Feb-22 00:00N 19°28' E 117°01'0 0.0 23.9
2018-Feb-21 23:00N 19°28' E 117°01'2 2.3 23.9
2018-Feb-21 22:00N 19°28' E 117°03'2 1.8 23.9
2018-Feb-21 21:00N 19°28' E 117°05'0 0.0 23.9
2018-Feb-21 20:00N 19°28' E 117°05'0 0.0 23.9
2018-Feb-21 19:00N 19°28' E 117°05'6 1.2 23.9
2018-Feb-21 14:00N 19°31' E 117°11'2 1.8 24.1
2018-Feb-21 13:00N 19°31' E 117°13'1 0.8 24.1
2018-Feb-21 12:00N 19°32' E 117°13'0 0.0 24.1
2018-Feb-21 11:00N 19°32' E 117°13'1 1.3 24.1
2018-Feb-21 10:00N 19°32' E 117°14'3 2.6 24.2
2018-Feb-21 09:00N 19°34' E 117°17'1 0.3 24.3
2018-Feb-21 07:00N 19°34' E 117°17'0 0.0 24.4
2018-Feb-21 06:00N 19°34' E 117°17'4 1.1 24.4
2018-Feb-21 02:00N 19°38' E 117°19'0 0.0 24.0
2018-Feb-21 00:00N 19°38' E 117°19'1 0.8 23.8
2018-Feb-20 23:00N 19°37' E 117°18'0 0.0 23.8
2018-Feb-20 22:00N 19°37' E 117°18'0 0.0 23.9
2018-Feb-20 21:00N 19°37' E 117°18'6 5.7 23.9
2018-Feb-20 20:00N 19°37' E 117°24'0 0.0 23.9
2018-Feb-20 19:00N 19°37' E 117°24'1 0.2 23.9
2018-Feb-20 14:00N 19°37' E 117°25'1 1.1 24.4
2018-Feb-20 13:00N 19°37' E 117°26'1 0.6 24.6
2018-Feb-20 12:00N 19°38' E 117°26'1 0.8 24.4
2018-Feb-20 11:00N 19°38' E 117°26'2 2.1 24.4
2018-Feb-20 10:00N 19°40' E 117°28'0 0.0 24.6
2018-Feb-20 09:00N 19°40' E 117°28'1 0.8 24.9
2018-Feb-20 08:00N 19°40' E 117°29'4 4.2 24.8
2018-Feb-20 07:00N 19°43' E 117°32'4 4.2 25.9
2018-Feb-20 06:00N 19°40' E 117°29'6 1.4 26.1
2018-Feb-20 02:00N 19°44' E 117°34'0 0.0 24.3
2018-Feb-20 01:00N 19°44' E 117°34'0 0.0 24.3
2018-Feb-20 00:00N 19°44' E 117°34'2 2.1 24.2
2018-Feb-19 23:00N 19°46' E 117°35'1 0.6 24.2
2018-Feb-19 22:00N 19°46' E 117°34'2 2.1 24.2
2018-Feb-19 21:00N 19°47' E 117°36'1 0.6 24.3
2018-Feb-19 20:00N 19°47' E 117°36'0 0.0 24.5
2018-Feb-19 19:00N 19°47' E 117°36'3 0.6 24.5
2018-Feb-19 14:00N 19°50' E 117°38'0 0.0 24.6
2018-Feb-19 13:00N 19°50' E 117°38'1 0.6 24.6
2018-Feb-19 12:00N 19°50' E 117°38'1 0.8 24.8
2018-Feb-19 11:00N 19°50' E 117°39'1 0.8 24.8
2018-Feb-19 10:00N 19°51' E 117°40'1 1.1 24.9
2018-Feb-19 09:00N 19°51' E 117°41'0 0.0 24.9
2018-Feb-19 08:00N 19°51' E 117°41'0 0.0 24.9
2018-Feb-19 07:00N 19°51' E 117°41'6 1.6 24.9
2018-Feb-19 03:00N 19°53' E 117°47'6 2.8 24.4
2018-Feb-19 01:00N 19°55' E 117°53'0 0.0 24.1
2018-Feb-19 00:00N 19°55' E 117°53'1 1.3 24.1
2018-Feb-18 23:00N 19°56' E 117°52'2 1.7 24.1
2018-Feb-18 22:00N 19°56' E 117°54'0 0.0 24.1
2018-Feb-18 21:00N 19°56' E 117°54'1 0.6 24.1
2018-Feb-18 20:00N 19°57' E 117°54'3 2.7 24.1
2018-Feb-18 19:00N 19°59' E 117°55'6 5.6 23.9
2018-Feb-18 18:00N 20°04' E 117°58'1 0.2 23.9
2018-Feb-18 13:00N 20°05' E 117°59'1 0.8 23.9
2018-Feb-18 12:00N 20°05' E 117°59'0 0.0 24.0
2018-Feb-18 11:00N 20°05' E 117°59'0 0.0 24.1
2018-Feb-18 10:00N 20°05' E 117°59'2 1.8 24.1
2018-Feb-18 09:00N 20°06' E 118°01'2 1.8 24.1
2018-Feb-18 08:00N 20°05' E 118°03'0 0.0 24.0
2018-Feb-18 07:00N 20°05' E 118°03'5 5.2 23.9
2018-Feb-18 06:00N 20°07' E 118°08'3 0.7 23.8
2018-Feb-18 01:00N 20°07' E 118°12'2 1.8 23.4
2018-Feb-18 00:00N 20°07' E 118°14'0 0.0 23.4
2018-Feb-17 23:00N 20°07' E 118°14'2 1.7 23.4
2018-Feb-17 22:00N 20°07' E 118°16'3 3.1 23.4
2018-Feb-17 21:00N 20°08' E 118°19'1 0.8 23.4
2018-Feb-17 20:00N 20°07' E 118°19'3 2.9 23.4
2018-Feb-17 19:00N 20°10' E 118°21'0 0.0 23.4
2018-Feb-17 18:00N 20°10' E 118°21'7 1.6 23.5
2018-Feb-17 14:00N 20°14' E 118°26'1 0.8 23.4
2018-Feb-17 13:00N 20°14' E 118°27'1 1.1 23.4
2018-Feb-17 12:00N 20°14' E 118°28'1 0.6 23.5
2018-Feb-17 11:00N 20°15' E 118°28'1 0.8 23.6
2018-Feb-17 10:00N 20°14' E 118°29'1 0.8 23.6
2018-Feb-17 09:00N 20°14' E 118°29'1 0.8 23.6
2018-Feb-17 08:00N 20°13' E 118°30'1 1.3 23.6
2018-Feb-17 07:00N 20°12' E 118°31'1 0.6 23.6
2018-Feb-17 06:00N 20°11' E 118°31'0 0.0 23.6
2018-Feb-17 05:00N 20°11' E 118°31'8 2.6 23.6
2018-Feb-17 02:00N 20°08' E 118°38'0 0.0 23.8
2018-Feb-17 01:00N 20°08' E 118°38'1 1.3 23.8
2018-Feb-17 00:00N 20°08' E 118°40'2 1.8 23.7
2018-Feb-16 23:00N 20°07' E 118°41'1 0.6 23.7
2018-Feb-16 22:00N 20°07' E 118°41'2 2.3 23.8
2018-Feb-16 21:00N 20°07' E 118°43'2 2.3 23.8
2018-Feb-16 20:00N 20°07' E 118°46'0 0.0 23.8
2018-Feb-16 19:00N 20°07' E 118°46'0 0.0 23.9
2018-Feb-16 18:00N 20°07' E 118°46'7 1.6 23.9
2018-Feb-16 14:00N 20°12' E 118°50'2 1.6 24.0
2018-Feb-16 13:00N 20°13' E 118°52'3 2.9 24.1
2018-Feb-16 12:00N 20°16' E 118°50'1 0.6 24.1
2018-Feb-16 11:00N 20°15' E 118°50'2 2.1 24.2
2018-Feb-16 10:00N 20°17' E 118°49'1 1.3 24.4
2018-Feb-16 09:00N 20°17' E 118°47'0 0.0 24.6
2018-Feb-16 08:00N 20°17' E 118°47'1 0.8 25.0
2018-Feb-16 07:00N 20°18' E 118°47'1 0.6 24.9
2018-Feb-16 06:00N 20°18' E 118°46'3 0.8 24.6
2018-Feb-16 02:00N 20°15' E 118°46'1 0.6 24.4
2018-Feb-16 00:00N 20°14' E 118°47'1 0.6 23.9
2018-Feb-15 23:00N 20°14' E 118°47'1 0.6 23.6
2018-Feb-15 22:00N 20°13' E 118°47'0 0.0 23.6
2018-Feb-15 21:00N 20°13' E 118°47'1 0.6 23.6
2018-Feb-15 20:00N 20°13' E 118°47'0 0.0 23.7
2018-Feb-15 19:00N 20°13' E 118°47'0 0.0 23.8
2018-Feb-15 18:00N 20°13' E 118°47'3 0.8 23.8
2018-Feb-15 14:00N 20°13' E 118°51'2 2.1 23.9
2018-Feb-15 13:00N 20°14' E 118°52'1 0.6 23.9
2018-Feb-15 12:00N 20°14' E 118°52'1 1.3 23.9
2018-Feb-15 11:00N 20°15' E 118°53'1 1.3 23.9
2018-Feb-15 10:00N 20°16' E 118°52'0 0.0 24.1
2018-Feb-15 09:00N 20°16' E 118°52'1 0.6 24.2
2018-Feb-15 08:00N 20°16' E 118°52'1 0.3 24.4
2018-Feb-15 06:00N 20°16' E 118°51'2 0.6 24.2
2018-Feb-15 02:00N 20°14' E 118°50'3 2.7 23.6
2018-Feb-15 01:00N 20°11' E 118°52'1 0.6 23.4
2018-Feb-15 00:00N 20°11' E 118°51'1 0.8 23.4
2018-Feb-14 23:00N 20°11' E 118°52'2 2.5 23.4
2018-Feb-14 22:00N 20°09' E 118°53'2 2.5 23.4
2018-Feb-14 21:00N 20°07' E 118°55'0 0.0 23.4
2018-Feb-14 20:00N 20°07' E 118°55'0 0.0 23.4
2018-Feb-14 19:00N 20°07' E 118°55'5 0.9 23.4
2018-Feb-14 14:00N 20°04' E 118°59'1 1.3 23.6
2018-Feb-14 13:00N 20°04' E 119°00'2 1.7 23.6
2018-Feb-14 12:00N 20°04' E 119°02'1 0.6 23.6
2018-Feb-14 11:00N 20°04' E 119°02'2 1.7 23.6
2018-Feb-14 10:00N 20°04' E 119°04'1 0.8 23.6
2018-Feb-14 09:00N 20°04' E 119°05'0 0.0 23.6
2018-Feb-14 08:00N 20°04' E 119°05'1 0.6 23.6
2018-Feb-14 07:00N 20°04' E 119°05'0 0.0 23.6
2018-Feb-14 06:00N 20°04' E 119°05'3 0.6 23.6
2018-Feb-14 01:00N 20°01' E 119°07'0 0.0 23.6
2018-Feb-14 00:00N 20°01' E 119°07'2 2.1 23.6
2018-Feb-13 23:00N 20°00' E 119°08'3 2.9 23.6
2018-Feb-13 22:00N 19°58' E 119°11'0 0.0 23.6
2018-Feb-13 21:00N 19°58' E 119°11'1 0.6 23.6
2018-Feb-13 20:00N 19°58' E 119°11'0 0.0 23.6
2018-Feb-13 19:00N 19°58' E 119°11'6 1.0 23.6
2018-Feb-13 13:00N 19°59' E 119°18'1 0.6 23.6
2018-Feb-13 12:00N 19°59' E 119°18'1 0.6 23.6
2018-Feb-13 11:00N 19°59' E 119°19'1 1.1 23.6
2018-Feb-13 10:00N 19°59' E 119°20'1 0.8 23.5
2018-Feb-13 09:00N 20°00' E 119°20'1 0.6 23.5
2018-Feb-13 07:00N 20°00' E 119°22'   23.4
Track history (hours):
 
Tides and Currents Weather Stations Pressure Air Temp Water Temp Dewpoint Dewpoint Depression Visibility Wind Speed Wind Dir Waves Ship Positions

Zhongguoyuzheng32543

Last reported at 2018-Feb-23 07:00 UTC. Time now 2018-Feb-23 08:38 UTC.
Position N 19°28' E 116°25'.

Length 50 m; draft 3.2 m.

Type: Other ship. MMSI: 412352016.

Water temperature 24.1 ° C

Date/timePositionNaut miles runAvg speedWind from/ knotsBaromVisibWave heightAir tempDewpointWater temp
2018-Feb-23 07:00N 19°28' E 116°25'0 0.0 24.1
2018-Feb-23 06:00N 19°28' E 116°25'10 2.0 24.1
2018-Feb-23 01:00N 19°28' E 116°36'1 0.8 23.9
2018-Feb-23 00:00N 19°27' E 116°37'1 1.3 23.9
2018-Feb-22 23:00N 19°28' E 116°38'1 1.1 23.9
2018-Feb-22 22:00N 19°28' E 116°39'3 3.4 23.9
2018-Feb-22 21:00N 19°28' E 116°43'0 0.0 23.9
2018-Feb-22 20:00N 19°28' E 116°43'0 0.0 23.9
2018-Feb-22 19:00N 19°28' E 116°43'6 1.2 23.9
2018-Feb-22 14:00N 19°31' E 116°49'2 2.3 24.0
2018-Feb-22 13:00N 19°31' E 116°51'1 0.8 23.9
2018-Feb-22 12:00N 19°32' E 116°52'1 0.6 23.9
2018-Feb-22 10:00N 19°32' E 116°53'0 0.0 24.1
2018-Feb-22 09:00N 19°32' E 116°53'1 0.3 24.2
2018-Feb-22 07:00N 19°32' E 116°53'0 0.0 24.1
2018-Feb-22 06:00N 19°32' E 116°53'6 1.6 24.3
2018-Feb-22 02:00N 19°28' E 116°58'0 0.0 24.0
2018-Feb-22 01:00N 19°28' E 116°58'2 2.3 23.9
2018-Feb-22 00:00N 19°28' E 117°01'0 0.0 23.9
2018-Feb-21 23:00N 19°28' E 117°01'2 2.3 23.9
2018-Feb-21 22:00N 19°28' E 117°03'2 1.8 23.9
2018-Feb-21 21:00N 19°28' E 117°05'0 0.0 23.9
2018-Feb-21 20:00N 19°28' E 117°05'0 0.0 23.9
2018-Feb-21 19:00N 19°28' E 117°05'6 1.2 23.9
2018-Feb-21 14:00N 19°31' E 117°11'2 1.8 24.1
2018-Feb-21 13:00N 19°31' E 117°13'1 0.8 24.1
2018-Feb-21 12:00N 19°32' E 117°13'0 0.0 24.1
2018-Feb-21 11:00N 19°32' E 117°13'1 1.3 24.1
2018-Feb-21 10:00N 19°32' E 117°14'3 2.6 24.2
2018-Feb-21 09:00N 19°34' E 117°17'1 0.3 24.3
2018-Feb-21 07:00N 19°34' E 117°17'0 0.0 24.4
2018-Feb-21 06:00N 19°34' E 117°17'4 1.1 24.4
2018-Feb-21 02:00N 19°38' E 117°19'0 0.0 24.0
2018-Feb-21 00:00N 19°38' E 117°19'1 0.8 23.8
2018-Feb-20 23:00N 19°37' E 117°18'0 0.0 23.8
2018-Feb-20 22:00N 19°37' E 117°18'0 0.0 23.9
2018-Feb-20 21:00N 19°37' E 117°18'6 5.7 23.9
2018-Feb-20 20:00N 19°37' E 117°24'0 0.0 23.9
2018-Feb-20 19:00N 19°37' E 117°24'1 0.2 23.9
2018-Feb-20 14:00N 19°37' E 117°25'1 1.1 24.4
2018-Feb-20 13:00N 19°37' E 117°26'1 0.6 24.6
2018-Feb-20 12:00N 19°38' E 117°26'1 0.8 24.4
2018-Feb-20 11:00N 19°38' E 117°26'2 2.1 24.4
2018-Feb-20 10:00N 19°40' E 117°28'0 0.0 24.6
2018-Feb-20 09:00N 19°40' E 117°28'1 0.8 24.9
2018-Feb-20 08:00N 19°40' E 117°29'4 4.2 24.8
2018-Feb-20 07:00N 19°43' E 117°32'4 4.2 25.9
2018-Feb-20 06:00N 19°40' E 117°29'6 1.4 26.1
2018-Feb-20 02:00N 19°44' E 117°34'0 0.0 24.3
2018-Feb-20 01:00N 19°44' E 117°34'0 0.0 24.3
2018-Feb-20 00:00N 19°44' E 117°34'2 2.1 24.2
2018-Feb-19 23:00N 19°46' E 117°35'1 0.6 24.2
2018-Feb-19 22:00N 19°46' E 117°34'2 2.1 24.2
2018-Feb-19 21:00N 19°47' E 117°36'1 0.6 24.3
2018-Feb-19 20:00N 19°47' E 117°36'0 0.0 24.5
2018-Feb-19 19:00N 19°47' E 117°36'3 0.6 24.5
2018-Feb-19 14:00N 19°50' E 117°38'0 0.0 24.6
2018-Feb-19 13:00N 19°50' E 117°38'1 0.6 24.6
2018-Feb-19 12:00N 19°50' E 117°38'1 0.8 24.8
2018-Feb-19 11:00N 19°50' E 117°39'1 0.8 24.8
2018-Feb-19 10:00N 19°51' E 117°40'1 1.1 24.9
2018-Feb-19 09:00N 19°51' E 117°41'0 0.0 24.9
2018-Feb-19 08:00N 19°51' E 117°41'0 0.0 24.9
2018-Feb-19 07:00N 19°51' E 117°41'6 1.6 24.9
2018-Feb-19 03:00N 19°53' E 117°47'6 2.8 24.4
2018-Feb-19 01:00N 19°55' E 117°53'0 0.0 24.1
2018-Feb-19 00:00N 19°55' E 117°53'1 1.3 24.1
2018-Feb-18 23:00N 19°56' E 117°52'2 1.7 24.1
2018-Feb-18 22:00N 19°56' E 117°54'0 0.0 24.1
2018-Feb-18 21:00N 19°56' E 117°54'1 0.6 24.1
2018-Feb-18 20:00N 19°57' E 117°54'3 2.7 24.1
2018-Feb-18 19:00N 19°59' E 117°55'6 5.6 23.9
2018-Feb-18 18:00N 20°04' E 117°58'1 0.2 23.9
2018-Feb-18 13:00N 20°05' E 117°59'1 0.8 23.9
2018-Feb-18 12:00N 20°05' E 117°59'0 0.0 24.0
2018-Feb-18 11:00N 20°05' E 117°59'0 0.0 24.1
2018-Feb-18 10:00N 20°05' E 117°59'2 1.8 24.1
2018-Feb-18 09:00N 20°06' E 118°01'2 1.8 24.1
2018-Feb-18 08:00N 20°05' E 118°03'0 0.0 24.0
2018-Feb-18 07:00N 20°05' E 118°03'5 5.2 23.9
2018-Feb-18 06:00N 20°07' E 118°08'3 0.7 23.8
2018-Feb-18 01:00N 20°07' E 118°12'2 1.8 23.4
2018-Feb-18 00:00N 20°07' E 118°14'0 0.0 23.4
2018-Feb-17 23:00N 20°07' E 118°14'2 1.7 23.4
2018-Feb-17 22:00N 20°07' E 118°16'3 3.1 23.4
2018-Feb-17 21:00N 20°08' E 118°19'1 0.8 23.4
2018-Feb-17 20:00N 20°07' E 118°19'3 2.9 23.4
2018-Feb-17 19:00N 20°10' E 118°21'0 0.0 23.4
2018-Feb-17 18:00N 20°10' E 118°21'7 1.6 23.5
2018-Feb-17 14:00N 20°14' E 118°26'1 0.8 23.4
2018-Feb-17 13:00N 20°14' E 118°27'1 1.1 23.4
2018-Feb-17 12:00N 20°14' E 118°28'1 0.6 23.5
2018-Feb-17 11:00N 20°15' E 118°28'1 0.8 23.6
2018-Feb-17 10:00N 20°14' E 118°29'1 0.8 23.6
2018-Feb-17 09:00N 20°14' E 118°29'1 0.8 23.6
2018-Feb-17 08:00N 20°13' E 118°30'1 1.3 23.6
2018-Feb-17 07:00N 20°12' E 118°31'1 0.6 23.6
2018-Feb-17 06:00N 20°11' E 118°31'0 0.0 23.6
2018-Feb-17 05:00N 20°11' E 118°31'8 2.6 23.6
2018-Feb-17 02:00N 20°08' E 118°38'0 0.0 23.8
2018-Feb-17 01:00N 20°08' E 118°38'1 1.3 23.8
2018-Feb-17 00:00N 20°08' E 118°40'2 1.8 23.7
2018-Feb-16 23:00N 20°07' E 118°41'1 0.6 23.7
2018-Feb-16 22:00N 20°07' E 118°41'2 2.3 23.8
2018-Feb-16 21:00N 20°07' E 118°43'2 2.3 23.8
2018-Feb-16 20:00N 20°07' E 118°46'0 0.0 23.8
2018-Feb-16 19:00N 20°07' E 118°46'0 0.0 23.9
2018-Feb-16 18:00N 20°07' E 118°46'7 1.6 23.9
2018-Feb-16 14:00N 20°12' E 118°50'2 1.6 24.0
2018-Feb-16 13:00N 20°13' E 118°52'3 2.9 24.1
2018-Feb-16 12:00N 20°16' E 118°50'1 0.6 24.1
2018-Feb-16 11:00N 20°15' E 118°50'2 2.1 24.2
2018-Feb-16 10:00N 20°17' E 118°49'1 1.3 24.4
2018-Feb-16 09:00N 20°17' E 118°47'0 0.0 24.6
2018-Feb-16 08:00N 20°17' E 118°47'1 0.8 25.0
2018-Feb-16 07:00N 20°18' E 118°47'1 0.6 24.9
2018-Feb-16 06:00N 20°18' E 118°46'3 0.8 24.6
2018-Feb-16 02:00N 20°15' E 118°46'1 0.6 24.4
2018-Feb-16 00:00N 20°14' E 118°47'1 0.6 23.9
2018-Feb-15 23:00N 20°14' E 118°47'1 0.6 23.6
2018-Feb-15 22:00N 20°13' E 118°47'0 0.0 23.6
2018-Feb-15 21:00N 20°13' E 118°47'1 0.6 23.6
2018-Feb-15 20:00N 20°13' E 118°47'0 0.0 23.7
2018-Feb-15 19:00N 20°13' E 118°47'0 0.0 23.8
2018-Feb-15 18:00N 20°13' E 118°47'3 0.8 23.8
2018-Feb-15 14:00N 20°13' E 118°51'2 2.1 23.9
2018-Feb-15 13:00N 20°14' E 118°52'1 0.6 23.9
2018-Feb-15 12:00N 20°14' E 118°52'1 1.3 23.9
2018-Feb-15 11:00N 20°15' E 118°53'1 1.3 23.9
2018-Feb-15 10:00N 20°16' E 118°52'0 0.0 24.1
2018-Feb-15 09:00N 20°16' E 118°52'1 0.6 24.2
2018-Feb-15 08:00N 20°16' E 118°52'1 0.3 24.4
2018-Feb-15 06:00N 20°16' E 118°51'2 0.6 24.2
2018-Feb-15 02:00N 20°14' E 118°50'3 2.7 23.6
2018-Feb-15 01:00N 20°11' E 118°52'1 0.6 23.4
2018-Feb-15 00:00N 20°11' E 118°51'1 0.8 23.4
2018-Feb-14 23:00N 20°11' E 118°52'2 2.5 23.4
2018-Feb-14 22:00N 20°09' E 118°53'2 2.5 23.4
2018-Feb-14 21:00N 20°07' E 118°55'0 0.0 23.4
2018-Feb-14 20:00N 20°07' E 118°55'0 0.0 23.4
2018-Feb-14 19:00N 20°07' E 118°55'5 0.9 23.4
2018-Feb-14 14:00N 20°04' E 118°59'1 1.3 23.6
2018-Feb-14 13:00N 20°04' E 119°00'2 1.7 23.6
2018-Feb-14 12:00N 20°04' E 119°02'1 0.6 23.6
2018-Feb-14 11:00N 20°04' E 119°02'2 1.7 23.6
2018-Feb-14 10:00N 20°04' E 119°04'1 0.8 23.6
2018-Feb-14 09:00N 20°04' E 119°05'0 0.0 23.6
2018-Feb-14 08:00N 20°04' E 119°05'1 0.6 23.6
2018-Feb-14 07:00N 20°04' E 119°05'0 0.0 23.6
2018-Feb-14 06:00N 20°04' E 119°05'3 0.6 23.6
2018-Feb-14 01:00N 20°01' E 119°07'0 0.0 23.6
2018-Feb-14 00:00N 20°01' E 119°07'2 2.1 23.6
2018-Feb-13 23:00N 20°00' E 119°08'3 2.9 23.6
2018-Feb-13 22:00N 19°58' E 119°11'0 0.0 23.6
2018-Feb-13 21:00N 19°58' E 119°11'1 0.6 23.6
2018-Feb-13 20:00N 19°58' E 119°11'0 0.0 23.6
2018-Feb-13 19:00N 19°58' E 119°11'6 1.0 23.6
2018-Feb-13 13:00N 19°59' E 119°18'1 0.6 23.6
2018-Feb-13 12:00N 19°59' E 119°18'1 0.6 23.6
2018-Feb-13 11:00N 19°59' E 119°19'1 1.1 23.6
2018-Feb-13 10:00N 19°59' E 119°20'1 0.8 23.5
2018-Feb-13 09:00N 20°00' E 119°20'1 0.6 23.5
2018-Feb-13 07:00N 20°00' E 119°22'   23.4

Dump ship's entire track history